Welcome to La Porte Aviation Services!

An aviation adventure awaits

Current Weather Conditions

Available data for KPPO from the past 2 hours
LA PORTE, IN
Metar
KPPO 251135Z AUTO 21006KT 10SM SCT110 22/19 A2990 RMK AO2 T02220185

11:35 UTC

Wind: 210° 6kt

Visibility: 10 SM

Sky: SCT 11000 ft

Temp: 22 deg C / 71.6 deg F

Dewpoint: 19 deg C / 66.2 deg F

Pressure: 29.9 inHg

Pireps (2)
ORD UA /OV FWA/TM 1106/FL300/TP B737/SK TOP300/TB CONS LGT
ORD UA /OV FWA/TM 1054/FL310/TP CRJ9/TB CONS LGT

Connect with us on Facebook!

Facebook By Weblizar Powered By Weblizar